< < Back
Terminal Aerodrome Forecast


Current Version              Previous Versions:   1  2  3  4  5  6  7  8  9  

Terminal Aerodrome Forecast

737
FTUS44 KBMX 240500
TAFTCL
TAF
KTCL 240520Z 2406/2506 00000KT P6SM BKN250
     FM241500 33006KT P6SM SKC
     FM250100 00000KT P6SM SKC=

Latest METAR

212
SAUS70 KWBC 250100 RRC
MTRTCL
METAR KTCL 250053Z AUTO 00000KT 10SM CLR 16/09 A3008 RMK AO2 SLP184
T01560089


USA.gov is the U.S. government's official web portal to all federal, state and local government web resources and services.